Portada
METAR-TAF:

METAR-TAF

Aeroports :

Wick, Escòcia

latitud: 58-27N, longitud: 003-05W, altitud: 39 m

Observació

L'informe es va fer fa 21 minuts, a les 20:20 UTC
Vent 2 kt del Nord/Nord-Est
Temperatura 12°C
Humitat 88%
Pressió 1025 hPa
Visibilitat 10 km o més

METAR: EGPC 012020Z AUTO 02002KT 9999 NCD 12/10 Q1025

Hora: 21:41 (20:41 UTC)

Pronòstic

L'informe es va fer fa 6 hores i 37 minuts, a les 14:04 UTC
Pronòstic vàlid del 01 a les 15 UTC al 01 a les 24 UTC
Vent 6 kt del Est/Sud-Est
Visibilitat 10 km o més
Escasses núvols a una alçada de 2000 ft
Probabilitat 30% :
Temporalment
l' 01 a les 22 UTC al 01 a les 24 UTC
Visibilitat: 6000 m
Cel ennuvolat a una alçada de 400 ft

TAF: EGPC 011404Z 0115/0124 12006KT 9999 FEW020 PROB30 TEMPO 0122/0124 6000 BKN004

Observacions i pronòstics meteorològics de més de 4000 aeroports (METAR i TAF).

Les estacions disponibles són els punts grocs i vermells al mapa.

Posi el ratolí al punt desitjat per veure el nom de l'estació.

Feu clic per veure les observacions i els pronòstics meteorològics.

Per canviar el mapa: feu clic els botons verds amb una creu de color negre per apropar; al botó verd amb un guió per allunyar la imatge; o en les fletxes verdes per a mapes adjacents.


METAR-TAF: